Observations for BRIZE NORTON RA, United Kingdom (EGVN)

EGVN 191950Z 25001KT CAVOK 08/06 Q1003 NOSIG
EGVN 191950Z 25001KT CAVOK 08/06 Q1003 NOSIG RMK BLU BLU
EGVN 191920Z 27002KT CAVOK 08/06 Q1003 NOSIG
EGVN 191920Z 27002KT CAVOK 08/06 Q1003 NOSIG RMK BLU BLU
EGVN 191850Z 28002KT CAVOK 08/06 Q1003 NOSIG
EGVN 191850Z 28002KT CAVOK 08/06 Q1003 NOSIG RMK BLU BLU
EGVN 191750Z 26002KT CAVOK 10/07 Q1002 NOSIG
EGVN 191750Z 26002KT CAVOK 10/07 Q1002 NOSIG RMK BLU BLU
EGVN 191720Z 26004KT 9999 FEW038 11/07 Q1002 NOSIG  
EGVN 191720Z 26004KT 9999 FEW038 11/07 Q1002 NOSIG RMK BLU BLU
EGVN 191650Z 26004KT 9999 FEW038 12/07 Q1002 NOSIG  
EGVN 191650Z 26004KT 9999 FEW038 12/07 Q1002 NOSIG RMK BLU BLU
EGVN 191620Z 25004KT 9999 FEW038 13/07 Q1001 NOSIG  
EGVN 191620Z 25004KT 9999 FEW038 13/07 Q1001 NOSIG RMK BLU BLU
EGVN 191550Z 26003KT 9999 FEW032TCU 13/07 Q1001 NOSIG RMK BLU BLU   
EGVN 191520Z 27004KT 9999 FEW030TCU 12/07 Q1001 NOSIG   
EGVN 191520Z 27004KT 9999 FEW030TCU 12/07 Q1001 NOSIG RMK BLU BLU
EGVN 191450Z 26006KT 9999 FEW028CB 13/07 Q1001 NOSIG
EGVN 191450Z 26006KT 9999 FEW028CB 13/07 Q1001 NOSIG RMK BLU BLU
EGVN 191420Z 26007KT 9999 FEW026CB SCT050 13/07 Q1000 NOSIG 
EGVN 191420Z 26007KT 9999 FEW026CB SCT050 13/07 Q1000 NOSIG RMK BLU BLU
EGVN 191350Z 26006KT 9999 FEW028 SCT044 14/07 Q1000 NOSIG   
EGVN 191350Z 26006KT 9999 FEW028 SCT044 14/07 Q1000 NOSIG RMK BLU BLU
EGVN 191320Z 27006KT 9999 FEW025TCU SCT042 13/08 Q1000 NOSIG RMK BLU BLU
EGVN 191250Z 26006KT 9999 FEW023TCU SCT040 13/07 Q1000 NOSIG
EGVN 191250Z 26006KT 9999 FEW023TCU SCT040 13/07 Q1000 NOSIG RMK BLU BLU
EGVN 191220Z 28006KT 9999 FEW022TCU 12/07 Q1000 TEMPO SCT022TCU 
EGVN 191220Z 28006KT 9999 FEW022TCU 12/07 Q1000 TEMPO SCT022TCU RMK BLU TEMPO WHT
EGVN 191150Z 27005KT 9999 FEW025TCU 13/08 Q0999 NOSIG   
EGVN 191150Z 27005KT 9999 FEW025TCU 13/08 Q0999 NOSIG RMK BLU BLU
EGVN 191120Z 24007KT 9999 FEW020 14/08 Q0999 TEMPO SCT024   
EGVN 191120Z 24007KT 9999 FEW020 14/08 Q0999 TEMPO SCT024 RMK BLU TEMPO WHT
EGVN 191050Z 24005KT 9999 FEW018 12/08 Q0999 TEMPO SCT022   
EGVN 191050Z 24005KT 9999 FEW018 12/08 Q0999 TEMPO SCT022 RMK BLU TEMPO WHT
EGVN 191020Z 25006KT 9999 FEW015 13/09 Q0999 NOSIG  
EGVN 191020Z 25006KT 9999 FEW015 13/09 Q0999 NOSIG RMK BLU BLU
EGVN 190950Z 24006KT 9999 FEW014 12/08 Q0999 NOSIG  
EGVN 190950Z 24006KT 9999 FEW014 12/08 Q0999 NOSIG RMK BLU BLU
EGVN 190920Z 24006KT 9999 FEW012 11/08 Q0999 NOSIG  
EGVN 190920Z 24006KT 9999 FEW012 11/08 Q0999 NOSIG RMK BLU BLU
EGVN 190850Z 25006KT 9999 FEW008 10/08 Q0998 NOSIG  
EGVN 190850Z 25006KT 9999 FEW008 10/08 Q0998 NOSIG RMK BLU BLU
EGVN 190820Z 26006KT 9999 FEW007 10/08 Q0998 NOSIG  
EGVN 190820Z 26006KT 9999 FEW007 10/08 Q0998 NOSIG RMK BLU BLU
EGVN 190750Z 24005KT 9999 FEW005 09/08 Q0998 NOSIG  
EGVN 190750Z 24005KT 9999 FEW005 09/08 Q0998 NOSIG RMK BLU BLU
EGVN 190720Z 25003KT 9999 FEW005 08/07 Q0998 NOSIG  
EGVN 190720Z 25003KT 9999 FEW005 08/07 Q0998 NOSIG RMK BLU BLU
EGVN 190650Z 24003KT 9999 FEW025 08/07 Q0998 NOSIG  
EGVN 190650Z 24003KT 9999 FEW025 08/07 Q0998 NOSIG RMK BLU BLU
EGVN 190550Z 23003KT 9999 FEW025 08/07 Q0997 NOSIG  
EGVN 190550Z 23003KT 9999 FEW025 08/07 Q0997 NOSIG RMK BLU BLU
EGVN 190450Z 23004KT 9999 FEW014 08/07 Q0997 NOSIG  
EGVN 190450Z 23004KT 9999 FEW014 08/07 Q0997 NOSIG RMK BLU BLU
EGVN 190350Z 21004KT 9999 FEW025 08/07 Q0997 TEMPO -SHRA SCT023 
EGVN 190350Z 21004KT 9999 FEW025 08/07 Q0997 TEMPO -SHRA SCT023 RMK BLU TEMPO WHT
EGVN 190250Z 21004KT CAVOK 08/07 Q0997 NOSIG
EGVN 190250Z 21004KT CAVOK 08/07 Q0997 NOSIG RMK BLU BLU
EGVN 190150Z 21003KT CAVOK 09/07 Q0997 NOSIG
EGVN 190150Z 21003KT CAVOK 09/07 Q0997 NOSIG RMK BLU BLU
EGVN 190050Z 21005KT CAVOK 09/07 Q0997 NOSIG
EGVN 190050Z 21005KT CAVOK 09/07 Q0997 NOSIG RMK BLU BLU
EGVN 190005Z 22006KT CAVOK 10/07 Q0997 NOSIG
EGVN 190005Z 22006KT CAVOK 10/07 Q0997 NOSIG RMK BLU BLU
EGVN 182350Z 22006KT CAVOK 10/07 Q0997 NOSIG RMK BLU BLU
EGVN 182250Z 21007KT CAVOK 10/07 Q0997 NOSIG
EGVN 182250Z 21007KT CAVOK 10/07 Q0997 NOSIG RMK BLU BLU
EGVN 182150Z 21006KT 9999 FEW025 10/08 Q0997 NOSIG  
EGVN 182150Z 21006KT 9999 FEW025 10/08 Q0997 NOSIG RMK BLU BLU
EGVN 182120Z 21007KT 9999 FEW025 10/08 Q0997 NOSIG  
EGVN 182120Z 21007KT 9999 FEW025 10/08 Q0997 NOSIG RMK BLU BLU
EGVN 182050Z 21006KT 9999 FEW028 11/08 Q0997 NOSIG  
EGVN 182050Z 21006KT 9999 FEW028 11/08 Q0997 NOSIG RMK BLU BLU
EGVN 182020Z 21008KT 9999 FEW025 11/08 Q0997 NOSIG  
EGVN 182020Z 21008KT 9999 FEW025 11/08 Q0997 NOSIG RMK BLU BLU
EGVN 181950Z 21008KT 9999 FEW044 11/08 Q0997 NOSIG  
EGVN 181950Z 21008KT 9999 FEW044 11/08 Q0997 NOSIG RMK BLU BLU
EGVN 181920Z 21009KT 9999 FEW025 11/08 Q0997 NOSIG  
EGVN 181920Z 21009KT 9999 FEW025 11/08 Q0997 NOSIG RMK BLU BLU